Terminal Aerodrome Forecast
Issued by NWS Cleveland, OH

Home | Current Version | Previous Version | Text Only | Print | Product List | Glossary Off
Versions: 1 2 3 4 5 6 7 8 9 10 11 12 13

000
FTUS41 KCLE 191133
TAFMFD
TAF
KMFD 191133Z 1912/2012 33012KT 1SM -SN OVC006
      TEMPO 1912/1913 1/2SM SN
     FM191300 34012KT 4SM -SN OVC015
     FM191400 34015G22KT P6SM OVC015
     FM191600 33015G22KT P6SM BKN020
     FM191900 33012KT P6SM BKN040
     FM200300 30005KT P6SM SCT030=

USA.gov is the U.S. government's official web portal to all federal, state and local government web resources and services.